createdAt,value
2018-06-21T00:01:42.026Z,86.10
2018-06-21T00:04:10.405Z,86.10
2018-06-21T00:06:38.800Z,86.00
2018-06-21T00:09:08.212Z,86.10
2018-06-21T00:11:36.697Z,86.00
2018-06-21T00:14:05.126Z,86.10
2018-06-21T00:16:33.502Z,86.30
2018-06-21T00:19:01.898Z,86.20
2018-06-21T00:21:30.309Z,86.60
2018-06-21T00:23:58.686Z,86.30
2018-06-21T00:26:27.192Z,85.90
2018-06-21T00:28:55.611Z,85.60
2018-06-21T00:31:23.946Z,84.80
2018-06-21T00:33:52.356Z,84.10
2018-06-21T00:36:20.838Z,84.50
2018-06-21T00:38:49.243Z,83.70
2018-06-21T00:41:17.674Z,83.20
2018-06-21T00:43:46.069Z,82.40
2018-06-21T00:46:14.470Z,82.40
2018-06-21T00:48:42.895Z,82.20
2018-06-21T00:51:11.286Z,82.80
2018-06-21T00:53:39.847Z,84.10
2018-06-21T00:56:16.344Z,85.30
2018-06-21T00:58:45.592Z,85.80
2018-06-21T01:01:14.705Z,86.30
2018-06-21T01:03:43.751Z,87.50
2018-06-21T01:06:12.897Z,88.60
2018-06-21T01:08:41.282Z,89.30
2018-06-21T01:11:09.876Z,89.70
2018-06-21T01:13:38.385Z,89.90
2018-06-21T01:16:06.880Z,90.10
2018-06-21T01:18:35.463Z,90.50
2018-06-21T01:21:04.125Z,91.00
2018-06-21T01:23:32.521Z,91.40
2018-06-21T01:26:00.948Z,91.80
2018-06-21T01:28:29.368Z,91.90
2018-06-21T01:30:57.810Z,92.00
2018-06-21T01:33:26.198Z,92.20
2018-06-21T01:35:55.261Z,92.50
2018-06-21T01:38:23.685Z,92.60
2018-06-21T01:40:52.106Z,92.90
2018-06-21T01:43:20.464Z,93.20
2018-06-21T01:45:51.745Z,93.40
2018-06-21T01:48:20.160Z,93.70
2018-06-21T01:50:49.697Z,93.80
2018-06-21T01:53:18.101Z,93.90
2018-06-21T01:55:46.484Z,94.10
2018-06-21T01:58:14.885Z,94.40
2018-06-21T02:00:43.295Z,94.50
2018-06-21T02:03:11.660Z,94.80
2018-06-21T02:05:40.066Z,95.00
2018-06-21T02:08:08.467Z,95.20
2018-06-21T02:10:36.940Z,95.40
2018-06-21T02:13:05.320Z,95.60
2018-06-21T02:15:33.704Z,95.70
2018-06-21T02:18:02.120Z,95.80
2018-06-21T02:20:30.492Z,95.70
2018-06-21T02:22:58.888Z,95.80
2018-06-21T02:25:27.290Z,96.10
2018-06-21T02:27:55.872Z,96.30
2018-06-21T02:30:24.485Z,96.20
2018-06-21T02:32:52.905Z,96.40
2018-06-21T02:35:21.353Z,96.50
2018-06-21T02:37:49.772Z,96.60
2018-06-21T02:40:18.229Z,96.70
2018-06-21T02:42:46.705Z,96.90
2018-06-21T02:45:15.219Z,97.00
2018-06-21T02:47:44.953Z,97.10
2018-06-21T02:50:13.525Z,97.20
2018-06-21T02:52:42.306Z,97.00
2018-06-21T02:55:10.750Z,97.00
2018-06-21T02:57:39.136Z,97.40
2018-06-21T03:00:07.581Z,97.40
2018-06-21T03:02:36.008Z,97.30
2018-06-21T03:05:04.404Z,97.20
2018-06-21T03:07:32.803Z,97.20
2018-06-21T03:10:01.201Z,97.30
2018-06-21T03:12:29.589Z,97.10
2018-06-21T03:14:57.993Z,97.00
2018-06-21T03:17:26.356Z,96.90
2018-06-21T03:19:54.748Z,96.60
2018-06-21T03:22:23.165Z,96.40
2018-06-21T03:24:51.536Z,96.30
2018-06-21T03:27:19.954Z,96.30
2018-06-21T03:29:48.368Z,96.20
2018-06-21T03:32:16.749Z,96.10
2018-06-21T03:34:45.152Z,95.80
2018-06-21T03:37:13.594Z,95.70
2018-06-21T03:39:42.004Z,95.50
2018-06-21T03:42:10.397Z,95.20
2018-06-21T03:44:38.814Z,95.00
2018-06-21T03:47:08.026Z,94.70
2018-06-21T03:49:36.443Z,94.60
2018-06-21T03:52:04.905Z,94.30
2018-06-21T03:54:34.216Z,94.30
2018-06-21T03:57:02.667Z,93.80
2018-06-21T03:59:31.073Z,93.80
2018-06-21T04:01:59.470Z,93.10
2018-06-21T04:04:27.859Z,92.30
2018-06-21T04:06:56.294Z,91.20
2018-06-21T04:09:24.741Z,89.10
2018-06-21T04:11:53.148Z,86.70
2018-06-21T04:14:21.536Z,81.40
2018-06-21T04:16:50.552Z,79.00
2018-06-21T04:19:19.146Z,78.70
2018-06-21T04:21:47.525Z,77.30
2018-06-21T04:24:15.928Z,74.80
2018-06-21T04:26:44.305Z,72.00
2018-06-21T04:29:12.667Z,71.90
2018-06-21T04:31:41.296Z,72.00
2018-06-21T04:34:09.671Z,70.40
2018-06-21T04:36:38.054Z,70.20
2018-06-21T04:39:07.525Z,71.00
2018-06-21T04:41:35.944Z,72.10
2018-06-21T04:44:04.398Z,73.30
2018-06-21T04:46:32.833Z,74.60
2018-06-21T04:49:01.229Z,75.60
2018-06-21T04:51:29.604Z,76.60
2018-06-21T04:53:58.036Z,77.70
2018-06-21T04:56:27.004Z,78.30
2018-06-21T04:58:55.413Z,79.20
2018-06-21T05:01:24.772Z,79.50
2018-06-21T05:03:53.148Z,80.10
2018-06-21T05:06:21.588Z,80.40
2018-06-21T05:08:49.972Z,80.00
2018-06-21T05:11:18.410Z,79.80
2018-06-21T05:13:46.784Z,79.80
2018-06-21T05:16:15.194Z,79.80
2018-06-21T05:18:43.584Z,79.80
2018-06-21T05:21:11.988Z,79.90
2018-06-21T05:23:40.360Z,80.50
2018-06-21T05:26:08.793Z,81.30
2018-06-21T05:28:37.231Z,82.60
2018-06-21T05:31:05.620Z,83.10
2018-06-21T05:33:34.013Z,83.60
2018-06-21T05:36:02.421Z,84.00
2018-06-21T05:38:30.880Z,84.40
2018-06-21T05:40:59.287Z,84.70
2018-06-21T05:43:27.712Z,84.80
2018-06-21T05:45:56.141Z,85.20
2018-06-21T05:48:24.696Z,85.90
2018-06-21T05:50:53.056Z,87.50
2018-06-21T05:53:21.494Z,89.00
2018-06-21T05:55:49.872Z,90.10
2018-06-21T05:58:18.248Z,90.80
2018-06-21T06:00:46.659Z,91.20
2018-06-21T06:03:15.045Z,91.40
2018-06-21T06:05:43.612Z,91.60
2018-06-21T06:08:11.994Z,91.80
2018-06-21T06:10:40.412Z,92.20
2018-06-21T06:13:08.791Z,93.00
2018-06-21T06:15:37.824Z,94.00
2018-06-21T06:18:06.231Z,94.70
2018-06-21T06:20:34.616Z,95.00
2018-06-21T06:23:03.034Z,95.70
2018-06-21T06:25:31.473Z,95.80
2018-06-21T06:27:59.868Z,96.10
2018-06-21T06:30:28.447Z,96.30
2018-06-21T06:32:56.839Z,96.50
2018-06-21T06:35:29.670Z,96.60
2018-06-21T06:37:59.052Z,96.70
2018-06-21T06:40:27.465Z,97.00
2018-06-21T06:42:55.956Z,97.10
2018-06-21T06:45:24.412Z,97.70
2018-06-21T06:47:52.852Z,98.00
2018-06-21T06:50:21.319Z,97.70
2018-06-21T06:52:49.873Z,97.60
2018-06-21T06:55:18.337Z,98.00
2018-06-21T06:57:46.775Z,98.30
2018-06-21T07:00:15.225Z,97.70
2018-06-21T07:02:43.689Z,97.60
2018-06-21T07:05:12.096Z,97.30
2018-06-21T07:07:40.520Z,96.80
2018-06-21T07:10:08.916Z,96.40
2018-06-21T07:12:37.590Z,95.70
2018-06-21T07:15:06.161Z,95.60
2018-06-21T07:17:34.677Z,94.60
2018-06-21T07:20:03.177Z,94.00
2018-06-21T07:22:31.573Z,93.30
2018-06-21T07:24:59.992Z,92.80
2018-06-21T07:27:28.417Z,91.80
2018-06-21T07:29:56.845Z,91.80
2018-06-21T07:32:25.328Z,91.00
2018-06-21T07:34:53.718Z,91.50
2018-06-21T07:37:22.133Z,91.40
2018-06-21T07:39:50.678Z,89.50
2018-06-21T07:42:19.688Z,86.00
2018-06-21T07:44:48.052Z,82.40
2018-06-21T07:47:16.517Z,80.00
2018-06-21T07:49:44.925Z,78.20
2018-06-21T07:52:13.472Z,76.60
2018-06-21T07:54:41.860Z,72.70
2018-06-21T07:57:10.283Z,70.30
2018-06-21T07:59:38.703Z,68.50
2018-06-21T08:02:07.109Z,67.40
2018-06-21T08:04:35.523Z,68.50
2018-06-21T08:07:04.104Z,69.10
2018-06-21T08:09:32.534Z,69.20
2018-06-21T08:12:00.965Z,69.60
2018-06-21T08:14:29.472Z,69.80
2018-06-21T08:16:58.595Z,69.80
2018-06-21T08:19:26.963Z,68.50
2018-06-21T08:21:55.367Z,66.60
2018-06-21T08:24:23.758Z,65.10
2018-06-21T08:26:52.202Z,63.20
2018-06-21T08:29:20.637Z,61.60
2018-06-21T08:31:49.044Z,58.90
2018-06-21T08:34:17.646Z,58.30
2018-06-21T08:36:46.082Z,57.80
2018-06-21T08:39:15.296Z,57.50
2018-06-21T08:41:43.692Z,57.70
2018-06-21T08:44:12.085Z,56.90
2018-06-21T08:46:40.487Z,56.60
2018-06-21T08:49:08.922Z,56.30
2018-06-21T08:51:37.376Z,54.00
2018-06-21T08:54:05.896Z,52.70
2018-06-21T08:56:34.393Z,51.40
2018-06-21T08:59:02.788Z,50.60
2018-06-21T09:01:31.161Z,50.40
2018-06-21T09:03:59.604Z,50.40
2018-06-21T09:06:27.984Z,49.60
2018-06-21T09:08:56.365Z,49.00
2018-06-21T09:11:24.765Z,48.50
2018-06-21T09:13:53.228Z,47.30
2018-06-21T09:16:21.652Z,47.60
2018-06-21T09:18:50.064Z,45.80
2018-06-21T09:21:18.465Z,44.20
2018-06-21T09:23:46.878Z,44.70
2018-06-21T09:26:15.296Z,45.50
2018-06-21T09:28:43.677Z,45.50
2018-06-21T09:31:13.066Z,45.00
2018-06-21T09:33:41.672Z,43.00
2018-06-21T09:36:10.084Z,41.90
2018-06-21T09:38:43.676Z,42.70
2018-06-21T09:41:17.184Z,42.80
2018-06-21T09:46:33.876Z,37.90
2018-06-21T09:48:54.057Z,37.20
2018-06-21T09:51:22.476Z,37.70
2018-06-21T09:53:50.896Z,36.30
2018-06-21T09:56:19.309Z,35.20
2018-06-21T09:58:47.709Z,36.50
2018-06-21T10:01:16.238Z,36.70
2018-06-21T10:03:44.708Z,36.70
2018-06-21T10:06:13.068Z,37.70
2018-06-21T10:08:41.468Z,37.60
2018-06-21T10:11:10.013Z,36.80
2018-06-21T10:13:38.385Z,33.80
2018-06-21T10:16:06.834Z,33.20
2018-06-21T10:18:35.256Z,33.60
2018-06-21T10:21:03.637Z,31.90
2018-06-21T10:23:32.083Z,30.60
2018-06-21T10:26:00.463Z,32.30
2018-06-21T10:28:29.641Z,33.20
2018-06-21T10:30:58.058Z,35.20
2018-06-21T10:33:26.439Z,37.10
2018-06-21T10:35:55.038Z,35.60
2018-06-21T10:38:23.429Z,32.40
2018-06-21T10:40:51.833Z,31.20
2018-06-21T10:43:20.414Z,29.50
2018-06-21T10:45:48.850Z,29.20
2018-06-21T10:48:17.304Z,29.10
2018-06-21T10:50:45.701Z,29.30
2018-06-21T10:53:14.123Z,31.30
2018-06-21T10:55:42.533Z,31.60
2018-06-21T10:58:10.962Z,31.80
2018-06-21T11:00:39.350Z,31.10
2018-06-21T11:03:07.961Z,30.00
2018-06-21T11:05:36.338Z,30.90
2018-06-21T11:08:04.758Z,32.60
2018-06-21T11:10:33.165Z,32.30
2018-06-21T11:13:01.546Z,31.30
2018-06-21T11:15:29.945Z,32.00
2018-06-21T11:17:58.547Z,32.20
2018-06-21T11:20:26.952Z,30.50
2018-06-21T11:22:55.329Z,31.10
2018-06-21T11:25:23.757Z,32.50
2018-06-21T11:27:52.173Z,32.30
2018-06-21T11:30:20.585Z,32.90
2018-06-21T11:32:48.980Z,30.90
2018-06-21T11:35:17.348Z,30.40
2018-06-21T11:37:45.769Z,31.00
2018-06-21T11:40:14.150Z,32.20
2018-06-21T11:42:42.725Z,32.20
2018-06-21T11:45:11.131Z,32.20
2018-06-21T11:47:39.525Z,32.30
2018-06-21T11:50:07.927Z,32.10
2018-06-21T11:52:36.325Z,32.70
2018-06-21T11:55:04.773Z,31.80
2018-06-21T11:57:33.284Z,31.80
2018-06-21T12:00:01.682Z,31.70
2018-06-21T12:02:30.100Z,32.00
2018-06-21T12:04:58.532Z,32.60
2018-06-21T12:07:26.928Z,33.20
2018-06-21T12:09:55.491Z,34.10
2018-06-21T12:12:23.868Z,31.80
2018-06-21T12:14:52.280Z,31.20
2018-06-21T12:17:20.815Z,31.10
2018-06-21T12:19:49.191Z,30.90
2018-06-21T12:22:17.572Z,32.00
2018-06-21T12:24:45.988Z,33.30
2018-06-21T12:27:14.426Z,33.80
2018-06-21T12:29:42.821Z,33.40
2018-06-21T12:32:11.209Z,33.80
2018-06-21T12:34:39.628Z,34.40
2018-06-21T12:37:07.989Z,34.10
2018-06-21T12:39:36.373Z,34.30
2018-06-21T12:42:04.882Z,34.00
2018-06-21T12:44:33.316Z,33.20
2018-06-21T12:47:08.109Z,31.90
2018-06-21T12:49:36.537Z,31.90
2018-06-21T12:52:04.908Z,32.10
2018-06-21T12:54:33.483Z,32.00
2018-06-21T12:57:01.892Z,32.50
2018-06-21T12:59:30.264Z,32.90
2018-06-21T13:01:58.681Z,32.50
2018-06-21T13:04:27.116Z,32.50
2018-06-21T13:06:55.496Z,31.50
2018-06-21T13:09:34.886Z,30.90
2018-06-21T13:12:40.030Z,31.90
2018-06-21T13:15:08.572Z,31.20
2018-06-21T13:17:37.017Z,30.80
2018-06-21T13:20:06.557Z,30.60
2018-06-21T13:22:34.971Z,30.20
2018-06-21T13:25:03.458Z,31.10
2018-06-21T13:27:31.894Z,30.80
2018-06-21T13:30:01.247Z,31.80
2018-06-21T13:32:29.600Z,31.30
2018-06-21T13:34:58.141Z,31.60
2018-06-21T13:37:26.549Z,30.90
2018-06-21T13:39:54.960Z,31.50
2018-06-21T13:42:23.549Z,31.40
2018-06-21T13:44:52.021Z,31.70
2018-06-21T13:47:20.456Z,32.20
2018-06-21T13:49:48.842Z,31.80
2018-06-21T13:52:17.344Z,31.80
2018-06-21T13:54:45.811Z,31.50
2018-06-21T13:57:14.271Z,31.70
2018-06-21T13:59:42.695Z,31.40
2018-06-21T14:02:11.089Z,31.50
2018-06-21T14:04:39.501Z,32.50
2018-06-21T14:07:07.979Z,33.00
2018-06-21T14:09:36.401Z,32.60
2018-06-21T14:12:04.901Z,33.30
2018-06-21T14:14:33.309Z,32.90
2018-06-21T14:17:02.708Z,33.00
2018-06-21T14:19:31.120Z,33.40
2018-06-21T14:21:59.540Z,32.90
2018-06-21T14:24:28.012Z,32.00
2018-06-21T14:26:56.441Z,31.70
2018-06-21T14:29:24.976Z,32.10
2018-06-21T14:31:53.436Z,32.40
2018-06-21T14:34:21.837Z,31.80
2018-06-21T14:36:50.280Z,32.00
2018-06-21T14:39:18.687Z,32.50
2018-06-21T14:41:48.244Z,32.60
2018-06-21T14:44:16.687Z,32.50
2018-06-21T14:46:45.098Z,32.90
2018-06-21T14:49:13.581Z,32.10
2018-06-21T14:51:42.037Z,31.70
2018-06-21T14:54:10.498Z,31.90
2018-06-21T14:56:38.995Z,32.40
2018-06-21T14:59:07.384Z,32.70
2018-06-21T15:01:35.982Z,33.00
2018-06-21T15:04:04.450Z,32.90
2018-06-21T15:06:32.896Z,33.20
2018-06-21T15:09:01.345Z,33.30
2018-06-21T15:11:29.686Z,33.50
2018-06-21T15:13:58.064Z,33.80
2018-06-21T15:16:26.524Z,33.30
2018-06-21T15:18:54.968Z,34.20
2018-06-21T15:21:23.367Z,34.40
2018-06-21T15:23:51.797Z,34.30
2018-06-21T15:26:20.260Z,34.10
2018-06-21T15:28:48.680Z,34.80
2018-06-21T15:31:17.083Z,35.00
2018-06-21T15:33:45.481Z,34.90
2018-06-21T15:36:13.926Z,35.60
2018-06-21T15:38:42.356Z,34.80
2018-06-21T15:41:10.796Z,34.90
2018-06-21T15:43:39.196Z,34.70
2018-06-21T15:46:07.681Z,35.10
2018-06-21T15:48:36.113Z,34.80
2018-06-21T15:51:04.729Z,34.80
2018-06-21T15:53:33.198Z,35.30
2018-06-21T15:56:01.621Z,35.90
2018-06-21T15:58:30.066Z,35.60
2018-06-21T16:00:58.501Z,35.60
2018-06-21T16:03:26.907Z,35.70
2018-06-21T16:05:55.310Z,35.40
2018-06-21T16:08:23.729Z,35.60
2018-06-21T16:10:52.116Z,35.70
2018-06-21T16:13:20.533Z,35.80
2018-06-21T16:15:49.234Z,36.00
2018-06-21T16:18:17.619Z,36.30
2018-06-21T16:20:46.061Z,36.70
2018-06-21T16:23:15.480Z,36.70
2018-06-21T16:25:43.926Z,37.20
2018-06-21T16:28:12.343Z,37.60
2018-06-21T16:30:40.752Z,37.70
2018-06-21T16:33:10.109Z,37.90
2018-06-21T16:35:38.540Z,37.80
2018-06-21T16:38:06.944Z,37.80
2018-06-21T16:40:35.341Z,38.40
2018-06-21T16:43:03.805Z,38.80
2018-06-21T16:45:32.233Z,38.00
2018-06-21T16:48:00.738Z,37.80
2018-06-21T16:50:29.185Z,37.70
2018-06-21T16:52:57.608Z,37.80
2018-06-21T16:55:26.051Z,38.20
2018-06-21T16:57:55.361Z,37.90
2018-06-21T17:00:23.772Z,38.30
2018-06-21T17:02:52.202Z,38.50
2018-06-21T17:05:20.791Z,38.80
2018-06-21T17:07:49.181Z,39.20
2018-06-21T17:10:17.647Z,39.60
2018-06-21T17:12:46.205Z,39.90
2018-06-21T17:15:14.589Z,40.30
2018-06-21T17:17:43.002Z,40.50
2018-06-21T17:20:11.456Z,40.60
2018-06-21T17:22:39.959Z,40.60
2018-06-21T17:25:08.503Z,40.60
2018-06-21T17:27:36.897Z,41.10
2018-06-21T17:30:05.642Z,41.10
2018-06-21T17:32:34.091Z,41.30
2018-06-21T17:35:02.534Z,41.70
2018-06-21T17:37:33.869Z,42.20
2018-06-21T17:40:02.267Z,42.50
2018-06-21T17:42:30.787Z,43.00
2018-06-21T17:44:59.206Z,43.70
2018-06-21T17:47:27.606Z,44.40
2018-06-21T17:49:56.032Z,44.70
2018-06-21T17:52:24.429Z,45.20
2018-06-21T17:54:52.833Z,45.60
2018-06-21T17:57:21.273Z,45.70
2018-06-21T17:59:49.702Z,46.00
2018-06-21T18:02:18.931Z,45.80
2018-06-21T18:04:47.631Z,45.70
2018-06-21T18:07:16.070Z,45.40
2018-06-21T18:09:44.516Z,45.90
2018-06-21T18:12:13.057Z,45.40
2018-06-21T18:14:41.461Z,45.10
2018-06-21T18:17:09.880Z,45.60
2018-06-21T18:19:39.059Z,46.10
2018-06-21T18:22:09.007Z,46.70
2018-06-21T18:24:37.726Z,47.40
2018-06-21T18:27:06.960Z,47.50
2018-06-21T18:29:36.108Z,47.70
2018-06-21T18:32:05.438Z,48.40
2018-06-21T18:34:33.975Z,49.00
2018-06-21T18:37:02.743Z,48.70
2018-06-21T18:39:31.652Z,47.50
2018-06-21T18:42:00.545Z,47.50
2018-06-21T18:44:28.972Z,47.70
2018-06-21T18:46:57.666Z,47.70
2018-06-21T18:49:26.122Z,47.30
2018-06-21T18:51:54.662Z,46.90
2018-06-21T18:54:23.098Z,46.90
2018-06-21T18:56:51.561Z,46.60
2018-06-21T18:59:20.098Z,47.00
2018-06-21T19:01:48.505Z,47.10
2018-06-21T19:04:16.953Z,47.30
2018-06-21T19:06:51.583Z,47.60
2018-06-21T19:09:25.252Z,48.00
2018-06-21T19:11:55.717Z,48.90
2018-06-21T19:14:24.100Z,48.60
2018-06-21T19:16:52.562Z,47.90
2018-06-21T19:19:21.013Z,47.90
2018-06-21T19:21:49.437Z,47.70
2018-06-21T19:24:17.887Z,47.80
2018-06-21T19:26:46.341Z,47.20
2018-06-21T19:29:14.756Z,47.60
2018-06-21T19:31:44.131Z,48.00
2018-06-21T19:34:12.568Z,48.10
2018-06-21T19:36:41.072Z,48.30
2018-06-21T19:39:10.341Z,48.70
2018-06-21T19:41:39.321Z,48.90
2018-06-21T19:44:08.521Z,49.30
2018-06-21T19:46:37.001Z,49.60
2018-06-21T19:49:05.620Z,50.20
2018-06-21T19:51:34.091Z,50.50
2018-06-21T19:54:03.778Z,50.90
2018-06-21T19:56:33.209Z,51.30
2018-06-21T19:59:01.710Z,51.80
2018-06-21T20:01:30.228Z,52.40
2018-06-21T20:03:58.671Z,53.00
2018-06-21T20:06:27.135Z,53.40
2018-06-21T20:08:55.656Z,53.90
2018-06-21T20:11:29.417Z,54.40
2018-06-21T20:13:57.915Z,54.80
2018-06-21T20:16:26.589Z,55.10
2018-06-21T20:18:55.019Z,55.60
2018-06-21T20:21:23.951Z,56.00
2018-06-21T20:23:52.627Z,56.20
2018-06-21T20:26:22.662Z,56.30
2018-06-21T20:28:51.116Z,56.50
2018-06-21T20:31:19.564Z,56.80
2018-06-21T20:33:48.312Z,57.30
2018-06-21T20:36:17.005Z,57.70
2018-06-21T20:38:45.472Z,58.00
2018-06-21T20:41:13.906Z,58.30
2018-06-21T20:43:42.412Z,58.30
2018-06-21T20:46:10.841Z,58.40
2018-06-21T20:48:39.283Z,58.70
2018-06-21T20:51:07.740Z,59.20
2018-06-21T20:53:36.163Z,59.50
2018-06-21T20:56:04.673Z,59.60
2018-06-21T20:58:33.078Z,59.70
2018-06-21T21:01:01.517Z,59.80
2018-06-21T21:03:29.938Z,59.80
2018-06-21T21:05:58.355Z,59.90
2018-06-21T21:08:27.008Z,59.90
2018-06-21T21:10:55.421Z,59.90
2018-06-21T21:13:23.872Z,59.80
2018-06-21T21:15:52.357Z,59.80
2018-06-21T21:18:20.885Z,59.80
2018-06-21T21:20:49.277Z,59.90
2018-06-21T21:23:17.628Z,59.80
2018-06-21T21:25:46.025Z,59.50
2018-06-21T21:28:14.420Z,59.50
2018-06-21T21:30:42.833Z,59.80
2018-06-21T21:33:11.277Z,59.80
2018-06-21T21:35:39.917Z,59.80
2018-06-21T21:38:08.319Z,60.20
2018-06-21T21:40:36.716Z,60.60
2018-06-21T21:43:05.097Z,61.00
2018-06-21T21:45:34.282Z,61.20
2018-06-21T21:48:02.660Z,61.50
2018-06-21T21:50:31.064Z,61.90
2018-06-21T21:52:59.444Z,62.30
2018-06-21T21:55:27.838Z,62.90
2018-06-21T21:57:56.241Z,63.20
2018-06-21T22:00:43.108Z,63.40
2018-06-21T22:03:11.520Z,63.50
2018-06-21T22:05:39.946Z,64.00
2018-06-21T22:08:08.638Z,64.10
2018-06-21T22:10:37.033Z,64.50
2018-06-21T22:13:05.557Z,64.60
2018-06-21T22:15:33.896Z,64.80
2018-06-21T22:18:02.517Z,65.00
2018-06-21T22:20:30.920Z,64.90
2018-06-21T22:22:59.583Z,65.10
2018-06-21T22:25:28.436Z,65.60
2018-06-21T22:27:57.312Z,65.50
2018-06-21T22:30:25.808Z,65.70
2018-06-21T22:32:54.203Z,65.70
2018-06-21T22:35:22.564Z,65.70
2018-06-21T22:37:51.299Z,65.90
2018-06-21T22:40:19.960Z,66.10
2018-06-21T22:42:48.321Z,66.20
2018-06-21T22:45:16.684Z,65.90
2018-06-21T22:47:45.061Z,66.50
2018-06-21T22:50:13.439Z,66.50
2018-06-21T22:52:41.840Z,66.60
2018-06-21T22:55:10.217Z,66.50
2018-06-21T22:57:38.601Z,66.90
2018-06-21T23:00:07.177Z,67.20
2018-06-21T23:02:35.528Z,67.00
2018-06-21T23:05:03.946Z,67.90
2018-06-21T23:07:32.525Z,67.20
2018-06-21T23:10:00.888Z,66.60
2018-06-21T23:12:29.246Z,66.40
2018-06-21T23:14:58.426Z,67.00
2018-06-21T23:17:26.773Z,67.40
2018-06-21T23:19:56.117Z,67.60
2018-06-21T23:22:24.472Z,67.50
2018-06-21T23:24:53.364Z,67.60
2018-06-21T23:27:22.750Z,67.90
2018-06-21T23:29:51.099Z,68.10
2018-06-21T23:32:19.465Z,68.40
2018-06-21T23:34:48.049Z,68.60
2018-06-21T23:37:16.416Z,68.60
2018-06-21T23:39:45.221Z,68.80
2018-06-21T23:42:14.010Z,69.00
2018-06-21T23:44:43.286Z,69.00
2018-06-21T23:47:11.996Z,69.10
2018-06-21T23:49:40.643Z,69.60
2018-06-21T23:52:09.049Z,69.50
2018-06-21T23:54:37.402Z,69.50
2018-06-21T23:57:05.792Z,69.80
2018-06-21T23:59:34.166Z,70.10
